Time;durP1;ratioP1;P1;durP2;ratioP2;P2;SDS_P1;SDS_P2;PMS_P1;PMS_P2;Temp;Humidity;BMP_temperature;BMP_pressure;BME280_temperature;BME280_humidity;BME280_pressure;Samples;Min_cycle;Max_cycle;Signal;HPM_P1;HPM_P2
2022/04/21 00:00:42;;;;;;;13.75;8.35;;;9.70;99.90;;;;;;5093504;28;20043;-70
2022/04/21 00:03:08;;;;;;;12.30;7.53;;;10.40;99.90;;;;;;5092364;28;20035;-70
2022/04/21 00:05:34;;;;;;;13.93;7.78;;;9.70;99.90;;;;;;5111140;28;20038;-70
2022/04/21 00:08:01;;;;;;;12.25;7.78;;;9.70;99.90;;;;;;5090880;28;20192;-70
2022/04/21 00:10:27;;;;;;;13.32;7.90;;;9.70;99.90;;;;;;5110226;28;20050;-69
2022/04/21 00:12:56;;;;;;;12.00;7.82;;;9.70;99.90;;;;;;5092175;28;20035;-70
2022/04/21 00:15:23;;;;;;;11.13;7.65;;;9.60;99.90;;;;;;5111144;28;20476;-70
2022/04/21 00:17:48;;;;;;;11.95;7.93;;;9.70;99.90;;;;;;5109870;28;20039;-70
2022/04/21 00:20:14;;;;;;;12.77;7.97;;;9.60;99.90;;;;;;5111480;28;20039;-70
2022/04/21 00:25:26;;;;;;;12.95;7.97;;;9.50;99.90;;;;;;5110563;28;20047;-70
2022/04/21 00:27:53;;;;;;;13.52;8.10;;;9.50;99.90;;;;;;5110618;28;20043;-70
2022/04/21 00:30:19;;;;;;;12.85;8.88;;;9.50;99.90;;;;;;5110579;28;20127;-71
2022/04/21 00:32:46;;;;;;;13.65;8.23;;;9.50;99.90;;;;;;5109629;28;20055;-70
2022/04/21 00:35:13;;;;;;;12.68;8.60;;;9.40;99.90;;;;;;5094456;28;20043;-71
2022/04/21 00:37:47;;;;;;;14.60;9.02;;;9.40;99.90;;;;;;5108233;28;20044;-70
2022/04/21 00:40:14;;;;;;;14.20;9.15;;;9.40;99.90;;;;;;5092476;28;20047;-69
2022/04/21 00:42:41;;;;;;;14.55;8.63;;;9.40;99.90;;;;;;5110666;28;20098;-70
2022/04/21 00:45:07;;;;;;;13.65;9.10;;;9.40;99.90;;;;;;5091253;28;20093;-70
2022/04/21 00:47:33;;;;;;;12.82;8.85;;;9.40;99.90;;;;;;5110459;28;20486;-70
2022/04/21 00:49:59;;;;;;;14.27;9.13;;;9.40;99.90;;;;;;5110367;28;20505;-70
2022/04/21 00:52:26;;;;;;;15.00;9.68;;;9.40;99.90;;;;;;5110829;28;20435;-70
2022/04/21 00:54:52;;;;;;;15.13;9.85;;;9.40;99.90;;;;;;5076203;28;20106;-69
2022/04/21 00:57:18;;;;;;;13.90;9.35;;;9.40;99.90;;;;;;5110330;28;20077;-69
2022/04/21 00:59:45;;;;;;;13.90;8.88;;;9.40;99.90;;;;;;5109408;28;20119;-70
2022/04/21 01:04:57;;;;;;;13.13;9.25;;;9.30;99.90;;;;;;5109506;28;20055;-70
2022/04/21 01:07:23;;;;;;;14.38;9.30;;;9.30;99.90;;;;;;5108000;28;20400;-71
2022/04/21 01:09:48;;;;;;;14.63;9.27;;;9.30;99.90;;;;;;5091952;28;20036;-70
2022/04/21 01:12:15;;;;;;;17.35;9.70;;;9.30;99.90;;;;;;5091009;28;20480;-70
2022/04/21 01:14:41;;;;;;;14.68;9.68;;;9.30;99.90;;;;;;5108579;28;20051;-71
2022/04/21 01:17:07;;;;;;;20.83;10.40;;;9.20;99.90;;;;;;5109431;28;20047;-71
2022/04/21 01:19:33;;;;;;;14.63;10.43;;;9.20;99.90;;;;;;5110462;28;20082;-71
2022/04/21 01:21:59;;;;;;;21.23;11.20;;;9.20;99.90;;;;;;5088755;28;20397;-70
2022/04/21 01:24:26;;;;;;;15.35;10.70;;;9.20;99.90;;;;;;5106375;28;20048;-69
2022/04/21 01:26:54;;;;;;;17.88;11.45;;;9.20;99.90;;;;;;5108660;28;20047;-70
2022/04/21 01:29:19;;;;;;;16.52;10.48;;;9.20;99.90;;;;;;5108867;28;20052;-70
2022/04/21 01:31:45;;;;;;;16.25;10.57;;;9.20;99.90;;;;;;5108790;28;20116;-70
2022/04/21 01:34:11;;;;;;;16.92;10.98;;;9.20;99.90;;;;;;5109477;28;20085;-70
2022/04/21 01:41:08;;;;;;;15.15;10.40;;;9.20;99.90;;;;;;5107196;28;20070;-70
2022/04/21 01:42:11;;;;;;;16.65;10.88;;;9.10;99.90;;;;;;5108385;28;20055;-70
2022/04/21 01:44:37;;;;;;;16.92;10.70;;;9.10;99.90;;;;;;5109212;28;20209;-70
2022/04/21 01:47:03;;;;;;;18.85;12.30;;;9.10;99.90;;;;;;5109161;28;20523;-70
2022/04/21 01:49:29;;;;;;;19.00;11.07;;;9.10;99.90;;;;;;5108581;28;20395;-71
2022/04/21 01:51:54;;;;;;;18.20;11.80;;;9.10;99.90;;;;;;5089140;28;20043;-70
2022/04/21 01:54:20;;;;;;;18.42;10.80;;;8.90;99.90;;;;;;5108702;28;20446;-70
2022/04/21 01:56:46;;;;;;;19.85;11.40;;;9.10;99.90;;;;;;5089511;28;20044;-70
2022/04/21 01:59:11;;;;;;;16.15;10.85;;;9.00;99.90;;;;;;5090861;28;20039;-71
2022/04/21 02:01:37;;;;;;;15.45;10.90;;;9.00;99.90;;;;;;5086922;28;20135;-70
2022/04/21 02:04:03;;;;;;;15.50;10.63;;;9.00;99.90;;;;;;5095753;28;20035;-70
2022/04/21 02:06:28;;;;;;;19.50;10.90;;;9.20;99.90;;;;;;5089399;28;20131;-70
2022/04/21 02:08:54;;;;;;;15.32;10.20;;;9.00;99.90;;;;;;5108149;28;20039;-71
2022/04/21 02:11:19;;;;;;;18.75;11.75;;;8.90;99.90;;;;;;5124783;27;20054;-70
2022/04/21 02:13:45;;;;;;;16.25;11.30;;;8.90;99.90;;;;;;5108481;28;20043;-70
2022/04/21 02:16:11;;;;;;;18.38;11.38;;;8.90;99.90;;;;;;5108845;28;20082;-71
2022/04/21 02:18:36;;;;;;;19.48;11.23;;;8.80;99.90;;;;;;5090322;28;20213;-70
2022/04/21 02:21:02;;;;;;;15.57;11.13;;;8.80;99.90;;;;;;5072781;28;20180;-70
2022/04/21 02:23:27;;;;;;;18.65;10.80;;;8.80;99.90;;;;;;5106663;28;20422;-70
2022/04/21 02:25:53;;;;;;;16.58;11.32;;;8.80;99.90;;;;;;5107879;28;20484;-70
2022/04/21 02:28:22;;;;;;;15.48;10.52;;;9.00;99.90;;;;;;5108353;28;20039;-71
2022/04/21 02:30:48;;;;;;;17.95;11.10;;;8.70;99.90;;;;;;5089845;28;20498;-71
2022/04/21 02:33:13;;;;;;;17.60;10.38;;;8.70;99.90;;;;;;5090099;28;20157;-71
2022/04/21 02:35:39;;;;;;;16.17;10.85;;;8.70;99.90;;;;;;5099972;28;20038;-70
2022/04/21 02:38:05;;;;;;;15.48;10.65;;;8.70;99.90;;;;;;5089230;28;20404;-71
2022/04/21 02:40:30;;;;;;;17.90;10.52;;;8.60;99.90;;;;;;5108106;28;20035;-71
2022/04/21 02:42:56;;;;;;;16.17;10.00;;;8.60;99.90;;;;;;5107879;28;20043;-71
2022/04/21 02:45:22;;;;;;;14.82;9.55;;;8.60;99.90;;;;;;5108135;28;20055;-71
2022/04/21 02:47:48;;;;;;;15.38;9.48;;;8.60;99.90;;;;;;5107833;28;20047;-71
2022/04/21 02:50:16;;;;;;;16.13;10.52;;;8.60;99.90;;;;;;5090756;28;20044;-71
2022/04/21 02:52:43;;;;;;;14.68;9.90;;;8.60;99.90;;;;;;5088019;28;20052;-71
2022/04/21 02:57:56;;;;;;;14.15;9.30;;;8.60;99.90;;;;;;5089844;28;20121;-71
2022/04/21 03:00:22;;;;;;;14.52;8.95;;;8.50;99.90;;;;;;5089517;28;20479;-70
2022/04/21 03:02:48;;;;;;;15.30;9.32;;;8.70;99.90;;;;;;5089176;28;20047;-70
2022/04/21 03:05:14;;;;;;;14.82;9.40;;;8.60;99.90;;;;;;5090072;28;20054;-70
2022/04/21 03:07:39;;;;;;;13.10;8.80;;;8.60;99.90;;;;;;5106221;28;20042;-70
2022/04/21 03:10:06;;;;;;;14.85;9.50;;;8.60;99.90;;;;;;5089773;28;20043;-70
2022/04/21 03:12:31;;;;;;;12.57;8.27;;;8.60;99.90;;;;;;5108450;28;20069;-70
2022/04/21 03:14:57;;;;;;;12.80;9.10;;;8.50;99.90;;;;;;5107785;28;20047;-70
2022/04/21 03:17:23;;;;;;;13.30;8.48;;;8.50;99.90;;;;;;5089385;28;20198;-70
2022/04/21 03:19:49;;;;;;;12.02;8.60;;;8.50;99.90;;;;;;5107773;28;20168;-70
2022/04/21 03:25:04;;;;;;;12.60;8.40;;;8.50;99.90;;;;;;5094674;28;20574;-71
2022/04/21 03:27:31;;;;;;;11.50;7.82;;;8.50;99.90;;;;;;5098355;28;20102;-71
2022/04/21 03:29:58;;;;;;;16.27;8.68;;;8.40;99.90;;;;;;5089315;28;20608;-70
2022/04/21 03:32:25;;;;;;;10.40;7.70;;;8.50;99.90;;;;;;5089691;28;20039;-70
2022/04/21 03:34:53;;;;;;;11.52;8.25;;;8.40;99.90;;;;;;5088301;28;20135;-70
2022/04/21 03:37:19;;;;;;;11.75;8.43;;;8.40;99.90;;;;;;5106463;28;20046;-70
2022/04/21 03:39:45;;;;;;;11.50;7.97;;;8.40;99.90;;;;;;5107637;28;20438;-70
2022/04/21 03:42:26;;;;;;;13.07;7.72;;;8.40;99.90;;;;;;5107283;28;20040;-70
2022/04/21 03:44:52;;;;;;;13.70;7.93;;;7.80;99.90;;;;;;5107535;28;20040;-70
2022/04/21 03:47:18;;;;;;;12.30;8.15;;;8.30;99.90;;;;;;5108108;28;20088;-70
2022/04/21 03:49:44;;;;;;;12.23;8.02;;;8.30;99.90;;;;;;5108549;28;20032;-70
2022/04/21 03:52:10;;;;;;;12.77;8.20;;;8.30;99.90;;;;;;5110649;28;20119;-70
2022/04/21 03:54:36;;;;;;;13.95;7.95;;;8.20;99.90;;;;;;5101787;28;20048;-70
2022/04/21 03:57:02;;;;;;;11.85;8.10;;;8.20;99.90;;;;;;5077219;28;20073;-70
2022/04/21 03:59:28;;;;;;;14.30;7.78;;;8.20;99.90;;;;;;5113479;28;20492;-69
2022/04/21 04:02:02;;;;;;;10.90;8.13;;;8.30;99.90;;;;;;5075131;28;20040;-70
2022/04/21 04:04:33;;;;;;;11.65;7.72;;;7.60;99.90;;;;;;5111363;28;20096;-70
2022/04/21 04:12:35;;;;;;;13.57;8.18;;;8.20;99.90;;;;;;5111313;28;20090;-71
2022/04/21 04:15:03;;;;;;;10.60;7.78;;;8.20;99.90;;;;;;5111169;28;20373;-71
2022/04/21 04:17:28;;;;;;;12.43;7.93;;;8.20;99.90;;;;;;5091970;28;20570;-71
2022/04/21 04:19:54;;;;;;;12.27;7.93;;;8.20;99.90;;;;;;5092122;28;20437;-71
2022/04/21 04:22:20;;;;;;;11.68;7.93;;;8.10;99.90;;;;;;5110952;28;20412;-70
2022/04/21 04:24:46;;;;;;;12.30;8.18;;;8.10;99.90;;;;;;5109760;28;20036;-70
2022/04/21 04:27:12;;;;;;;11.10;7.80;;;8.10;99.90;;;;;;5092094;28;20089;-70
2022/04/21 04:29:37;;;;;;;12.95;8.50;;;8.10;99.90;;;;;;5092748;28;20043;-70
2022/04/21 04:32:03;;;;;;;10.63;7.72;;;8.10;99.90;;;;;;5110999;28;20092;-70
2022/04/21 04:34:29;;;;;;;13.07;7.88;;;8.10;99.90;;;;;;5101011;28;20048;-70
2022/04/21 04:36:55;;;;;;;13.18;8.27;;;8.10;99.90;;;;;;5102871;28;20046;-70
2022/04/21 04:39:21;;;;;;;12.88;8.00;;;8.10;99.90;;;;;;5109667;28;20476;-71
2022/04/21 04:44:31;;;;;;;12.25;8.20;;;8.00;99.90;;;;;;5110311;28;20059;-71
2022/04/21 04:46:57;;;;;;;13.50;8.57;;;8.00;99.90;;;;;;5109155;28;20462;-71
2022/04/21 04:49:23;;;;;;;12.43;8.80;;;8.00;99.90;;;;;;5110695;28;20050;-71
2022/04/21 04:51:48;;;;;;;13.45;9.32;;;8.10;99.90;;;;;;5089510;28;20047;-71
2022/04/21 04:54:15;;;;;;;12.40;8.30;;;8.10;99.90;;;;;;5110426;28;20055;-71
2022/04/21 04:56:43;;;;;;;12.18;8.63;;;8.10;99.90;;;;;;5109111;28;20441;-71
2022/04/21 04:59:09;;;;;;;13.10;8.90;;;8.10;99.90;;;;;;5109587;28;20036;-71
2022/04/21 05:01:41;;;;;;;12.88;8.13;;;8.10;99.90;;;;;;5109177;28;20074;-71
2022/04/21 05:04:11;;;;;;;14.10;8.50;;;8.10;99.90;;;;;;5110557;28;20082;-71
2022/04/21 05:06:39;;;;;;;14.02;8.98;;;8.20;99.90;;;;;;5109573;28;20475;-71
2022/04/21 05:09:06;;;;;;;13.27;8.95;;;8.20;99.90;;;;;;5111427;28;20048;-70
2022/04/21 05:11:37;;;;;;;16.15;8.75;;;8.20;99.90;;;;;;5074654;28;20508;-71
2022/04/21 05:14:03;;;;;;;13.13;8.55;;;8.20;99.90;;;;;;5073813;28;20504;-71
2022/04/21 05:16:29;;;;;;;13.55;8.23;;;8.20;99.90;;;;;;5109840;28;20476;-71
2022/04/21 05:18:58;;;;;;;13.50;7.93;;;8.30;99.90;;;;;;5111079;28;20155;-71
2022/04/21 05:21:24;;;;;;;11.73;7.97;;;8.30;99.90;;;;;;5107311;28;20046;-71
2022/04/21 05:23:56;;;;;;;12.55;8.68;;;8.20;99.90;;;;;;5098037;28;20127;-71
2022/04/21 05:26:22;;;;;;;14.00;8.40;;;8.30;99.90;;;;;;5107166;28;20044;-71
2022/04/21 05:28:48;;;;;;;14.90;9.02;;;8.30;99.90;;;;;;5089674;28;20070;-71
2022/04/21 05:31:15;;;;;;;11.90;8.13;;;8.30;99.90;;;;;;5108652;28;20317;-71
2022/04/21 05:33:41;;;;;;;11.90;8.05;;;8.40;99.90;;;;;;5073864;28;20044;-71
2022/04/21 05:36:07;;;;;;;13.15;8.60;;;8.40;99.90;;;;;;5110152;28;20038;-71
2022/04/21 05:38:34;;;;;;;14.30;8.95;;;8.40;99.90;;;;;;5109937;28;20067;-71
2022/04/21 05:41:00;;;;;;;11.50;8.18;;;8.40;99.90;;;;;;5108110;28;20040;-71
2022/04/21 05:43:30;;;;;;;12.35;8.40;;;8.50;99.90;;;;;;5108745;28;20044;-71
2022/04/21 05:45:56;;;;;;;13.70;8.15;;;8.50;99.90;;;;;;5107661;28;20040;-71
2022/04/21 05:48:22;;;;;;;12.00;8.82;;;8.50;99.90;;;;;;5089730;28;20044;-71
2022/04/21 05:50:51;;;;;;;15.02;8.68;;;8.50;99.90;;;;;;5108206;28;20036;-71
2022/04/21 05:53:24;;;;;;;14.38;8.93;;;9.20;99.90;;;;;;5087819;28;20500;-71
2022/04/21 05:55:51;;;;;;;13.45;8.70;;;8.60;99.90;;;;;;5093245;28;20044;-71
2022/04/21 05:58:18;;;;;;;14.05;9.05;;;8.70;99.90;;;;;;5073244;28;20054;-71
2022/04/21 06:00:43;;;;;;;13.63;9.15;;;8.70;99.90;;;;;;5089954;28;20044;-71
2022/04/21 06:03:11;;;;;;;15.55;9.68;;;8.80;99.90;;;;;;5107989;28;20043;-71
2022/04/21 06:05:37;;;;;;;16.20;9.85;;;8.80;99.90;;;;;;5090641;28;20047;-72
2022/04/21 06:08:05;;;;;;;13.30;9.00;;;8.30;99.90;;;;;;5106813;28;20127;-71
2022/04/21 06:10:35;;;;;;;12.93;9.18;;;8.90;99.90;;;;;;5090129;28;20044;-71
2022/04/21 06:13:03;;;;;;;13.15;8.43;;;9.10;99.90;;;;;;5107461;28;20075;-71
2022/04/21 06:15:33;;;;;;;13.50;8.63;;;9.10;99.90;;;;;;5109100;28;20058;-71
2022/04/21 06:17:59;;;;;;;10.02;6.93;;;9.20;99.90;;;;;;5107661;28;20502;-71
2022/04/21 06:20:26;;;;;;;12.77;7.38;;;9.20;99.90;;;;;;5091023;28;20043;-71
2022/04/21 06:22:52;;;;;;;10.65;6.85;;;9.30;99.90;;;;;;5105245;28;20096;-71
2022/04/21 06:25:18;;;;;;;10.65;7.43;;;9.40;99.90;;;;;;5090490;28;20044;-71
2022/04/21 06:27:44;;;;;;;11.25;7.00;;;9.40;99.90;;;;;;5089463;28;20055;-71
2022/04/21 06:30:10;;;;;;;16.17;7.90;;;9.50;99.90;;;;;;5108451;28;20047;-71
2022/04/21 06:32:36;;;;;;;9.05;6.95;;;9.60;99.90;;;;;;5110230;28;20043;-71
2022/04/21 06:35:03;;;;;;;11.32;7.05;;;10.50;99.90;;;;;;5110466;28;20108;-70
2022/04/21 06:37:29;;;;;;;10.65;7.40;;;9.70;99.90;;;;;;5090082;28;20538;-70
2022/04/21 06:39:54;;;;;;;10.90;7.32;;;9.70;99.90;;;;;;5089286;28;20044;-70
2022/04/21 06:42:20;;;;;;;9.80;6.93;;;9.80;99.90;;;;;;5107926;28;20081;-70
2022/04/21 06:50:13;;;;;;;9.77;6.38;;;10.10;99.90;;;;;;5087922;28;20048;-71
2022/04/21 06:52:39;;;;;;;10.13;6.25;;;10.10;99.90;;;;;;5085481;28;20368;-72
2022/04/21 06:55:05;;;;;;;10.93;6.53;;;10.20;99.90;;;;;;5069927;28;20066;-71
2022/04/21 06:57:31;;;;;;;9.90;6.70;;;10.30;99.90;;;;;;5097127;28;20040;-71
2022/04/21 06:59:56;;;;;;;10.20;6.53;;;10.40;99.90;;;;;;5107346;28;20047;-71
2022/04/21 07:02:31;;;;;;;10.07;6.70;;;10.50;99.90;;;;;;5072670;28;20047;-70
2022/04/21 07:05:10;;;;;;;10.05;6.15;;;10.60;99.90;;;;;;5088942;28;20048;-70
2022/04/21 07:07:36;;;;;;;11.18;5.65;;;10.70;99.90;;;;;;5106561;28;20108;-70
2022/04/21 07:10:03;;;;;;;8.57;5.57;;;10.80;99.90;;;;;;5088331;28;20048;-70
2022/04/21 07:12:32;;;;;;;7.22;5.45;;;10.30;99.90;;;;;;5082491;28;20065;-70
2022/04/21 07:15:05;;;;;;;9.32;5.05;;;11.00;99.90;;;;;;5069539;28;20400;-70
2022/04/21 07:17:31;;;;;;;7.93;5.30;;;11.10;99.90;;;;;;5069736;28;20459;-70
2022/04/21 07:19:58;;;;;;;8.15;5.70;;;11.20;99.90;;;;;;5086865;28;20052;-71
2022/04/21 07:22:27;;;;;;;7.07;4.88;;;11.20;99.90;;;;;;5085834;28;20054;-71
2022/04/21 07:24:53;;;;;;;8.10;4.70;;;11.40;99.90;;;;;;5102876;28;20081;-71
2022/04/21 07:27:19;;;;;;;8.02;4.85;;;11.60;99.90;;;;;;5110852;28;20036;-70
2022/04/21 07:29:45;;;;;;;8.73;4.60;;;11.60;99.90;;;;;;5111847;28;20180;-70
2022/04/21 07:32:11;;;;;;;8.50;4.43;;;12.50;99.90;;;;;;5111460;28;20111;-71
2022/04/21 07:34:37;;;;;;;6.35;4.15;;;11.80;99.90;;;;;;5109635;28;20499;-70
2022/04/21 07:37:04;;;;;;;6.45;4.03;;;11.80;99.90;;;;;;5108886;28;20043;-70
2022/04/21 07:39:30;;;;;;;5.88;3.50;;;11.90;99.90;;;;;;5112394;28;20073;-70
2022/04/21 07:41:57;;;;;;;5.72;3.70;;;12.10;99.90;;;;;;5110312;28;20605;-70
2022/04/21 07:44:23;;;;;;;6.63;3.88;;;12.10;99.90;;;;;;5111614;28;20044;-70
2022/04/21 07:46:49;;;;;;;6.63;3.53;;;12.20;99.90;;;;;;5110952;28;20591;-70
2022/04/21 07:54:46;;;;;;;4.65;2.92;;;12.60;99.90;;;;;;5098359;28;20056;-71
2022/04/21 07:57:11;;;;;;;5.18;2.70;;;12.70;99.90;;;;;;5108811;28;20491;-71
2022/04/21 07:59:37;;;;;;;6.60;2.53;;;12.80;99.90;;;;;;5092145;28;20050;-69
2022/04/21 08:02:04;;;;;;;5.72;2.70;;;13.50;99.90;;;;;;5109885;28;20120;-71
2022/04/21 08:04:30;;;;;;;6.20;2.70;;;12.90;99.90;;;;;;5110422;28;20122;-69
2022/04/21 08:06:57;;;;;;;5.22;2.83;;;13.00;99.90;;;;;;5109155;28;20524;-69
2022/04/21 08:09:23;;;;;;;4.75;2.75;;;13.10;99.90;;;;;;5112569;28;20048;-69
2022/04/21 08:11:49;;;;;;;7.40;2.78;;;13.20;99.90;;;;;;5109882;28;20484;-68
2022/04/21 08:14:16;;;;;;;5.22;2.80;;;13.30;99.90;;;;;;5111292;28;20040;-69
2022/04/21 08:16:43;;;;;;;4.78;2.60;;;13.40;99.90;;;;;;5090232;28;20040;-67
2022/04/21 08:19:09;;;;;;;7.70;3.15;;;13.50;99.90;;;;;;5091707;28;20088;-67
2022/04/21 08:21:36;;;;;;;5.07;2.90;;;13.60;99.90;;;;;;5109382;28;20052;-67
2022/04/21 08:32:33;;;;;;;6.13;2.75;;;13.70;99.90;;;;;;5109654;28;20434;-67
2022/04/21 08:32:41;;;;;;;4.55;2.88;;;14.10;99.90;;;;;;5110929;28;20438;-68
2022/04/21 08:35:09;;;;;;;6.95;2.85;;;14.60;99.90;;;;;;5097910;28;20400;-69
2022/04/21 08:37:35;;;;;;;5.32;2.75;;;14.50;99.90;;;;;;5099667;28;20141;-69
2022/04/21 08:40:02;;;;;;;4.65;2.70;;;14.60;99.90;;;;;;5091945;28;20060;-68
2022/04/21 08:42:35;;;;;;;5.00;2.72;;;14.70;99.90;;;;;;5091205;28;20451;-68
2022/04/21 08:45:01;;;;;;;4.53;2.67;;;14.90;99.90;;;;;;5091128;28;20051;-68
2022/04/21 08:47:28;;;;;;;5.32;2.70;;;15.00;99.70;;;;;;5109900;28;20036;-69
2022/04/21 08:50:04;;;;;;;5.85;2.60;;;15.20;99.80;;;;;;5101328;28;20043;-69
2022/04/21 08:52:32;;;;;;;8.30;2.97;;;15.30;99.30;;;;;;5087180;28;20088;-69
2022/04/21 08:54:59;;;;;;;5.82;2.75;;;15.40;99.00;;;;;;5108684;28;20063;-69
2022/04/21 08:57:25;;;;;;;6.07;2.80;;;15.50;98.60;;;;;;5074442;28;20083;-69
2022/04/21 08:59:52;;;;;;;5.20;2.60;;;15.60;98.20;;;;;;5091685;28;20086;-70
2022/04/21 09:02:18;;;;;;;7.60;3.00;;;15.70;98.30;;;;;;5109425;28;20376;-70
2022/04/21 09:04:43;;;;;;;5.25;2.95;;;15.80;98.60;;;;;;5090459;28;20047;-71
2022/04/21 09:07:18;;;;;;;5.80;3.00;;;15.90;98.40;;;;;;5107894;28;20050;-70
2022/04/21 09:10:06;;;;;;;7.55;2.90;;;16.10;98.50;;;;;;5108620;28;20039;-69
2022/04/21 09:12:33;;;;;;;5.28;3.08;;;16.30;98.50;;;;;;5073889;28;20397;-68
2022/04/21 09:15:05;;;;;;;6.72;3.20;;;16.40;98.50;;;;;;5098731;28;20059;-68
2022/04/21 09:17:30;;;;;;;6.00;2.75;;;16.60;97.70;;;;;;5089442;28;20046;-69
2022/04/21 09:19:58;;;;;;;6.25;2.72;;;16.90;97.70;;;;;;5089058;28;20047;-68
2022/04/21 09:22:24;;;;;;;6.90;2.78;;;16.90;97.40;;;;;;5107604;28;20130;-68
2022/04/21 09:24:53;;;;;;;4.25;2.83;;;17.10;97.60;;;;;;5109100;28;20123;-68
2022/04/21 09:27:20;;;;;;;6.97;3.00;;;17.30;97.50;;;;;;5108083;28;20126;-71
2022/04/21 09:29:46;;;;;;;5.65;3.20;;;17.50;97.40;;;;;;5090351;28;20042;-72
2022/04/21 09:32:16;;;;;;;6.03;3.42;;;17.70;96.90;;;;;;5073935;28;20043;-70
2022/04/21 09:34:48;;;;;;;5.53;3.70;;;18.00;96.80;;;;;;5089589;28;20131;-71
2022/04/21 09:37:19;;;;;;;4.70;3.10;;;18.50;96.80;;;;;;5107798;28;20061;-71
2022/04/21 09:39:50;;;;;;;4.80;3.22;;;19.00;96.20;;;;;;5090362;28;20372;-70
2022/04/21 09:42:25;;;;;;;7.47;3.45;;;21.20;94.50;;;;;;5107904;28;20050;-71
2022/04/21 09:47:35;;;;;;;5.18;3.05;;;26.60;83.40;;;;;;5108073;28;20036;-71
2022/04/21 09:50:14;;;;;;;5.03;3.10;;;29.30;73.40;;;;;;5089944;28;20472;-70
2022/04/21 09:52:47;;;;;;;3.85;2.72;;;31.20;63.30;;;;;;5106633;28;20082;-71
2022/04/21 09:55:26;;;;;;;4.95;2.70;;;33.30;58.80;;;;;;5092960;28;20059;-72
2022/04/21 09:58:03;;;;;;;5.05;2.80;;;35.20;55.80;;;;;;5086517;28;20071;-71
2022/04/21 10:00:30;;;;;;;5.85;2.70;;;36.10;50.50;;;;;;5087860;28;20043;-71
2022/04/21 10:02:56;;;;;;;4.40;2.70;;;36.90;48.40;;;;;;5086762;28;20485;-71
2022/04/21 10:05:23;;;;;;;5.65;2.53;;;37.80;46.40;;;;;;5088730;28;20096;-71
2022/04/21 10:07:49;;;;;;;4.35;2.33;;;38.50;45.90;;;;;;5085441;28;20048;-71
2022/04/21 10:10:16;;;;;;;3.63;2.30;;;39.40;44.40;;;;;;5072337;28;20036;-71
2022/04/21 10:12:42;;;;;;;5.07;2.58;;;40.40;44.00;;;;;;5091701;28;20115;-71
2022/04/21 10:15:10;;;;;;;4.93;2.20;;;41.00;42.80;;;;;;5071703;28;20044;-71
2022/04/21 10:17:36;;;;;;;4.00;2.20;;;41.40;41.40;;;;;;5087051;28;20087;-70
2022/04/21 10:20:03;;;;;;;4.05;2.10;;;41.80;40.70;;;;;;5070122;28;20086;-71
2022/04/21 10:22:33;;;;;;;7.70;2.10;;;42.20;40.10;;;;;;5085747;28;20036;-71
2022/04/21 10:25:00;;;;;;;5.10;2.17;;;42.70;39.90;;;;;;5070107;28;20429;-71
2022/04/21 10:27:39;;;;;;;3.63;2.00;;;42.70;38.10;;;;;;5070158;28;20454;-71
2022/04/21 10:30:14;;;;;;;6.07;2.20;;;42.80;37.80;;;;;;5087401;28;20036;-71
2022/04/21 10:32:51;;;;;;;4.78;2.47;;;43.00;37.60;;;;;;5068943;28;20044;-71
2022/04/21 10:35:18;;;;;;;4.00;2.17;;;43.10;36.50;;;;;;5070226;28;20040;-71
2022/04/21 10:37:43;;;;;;;4.65;2.03;;;42.70;36.50;;;;;;5066565;28;20059;-71
2022/04/21 10:40:11;;;;;;;2.97;1.95;;;42.80;36.50;;;;;;5088122;28;20392;-70
2022/04/21 10:42:52;;;;;;;4.35;1.88;;;43.00;36.30;;;;;;5086987;28;20044;-71
2022/04/21 10:45:33;;;;;;;6.20;1.95;;;43.00;35.70;;;;;;5105232;28;20063;-71
2022/04/21 10:48:06;;;;;;;3.03;1.90;;;43.40;36.00;;;;;;5094586;28;20127;-70
2022/04/21 10:50:32;;;;;;;3.75;1.77;;;43.90;35.70;;;;;;5087549;28;20040;-71
2022/04/21 10:58:32;;;;;;;4.38;1.77;;;43.10;35.10;;;;;;5088299;28;20101;-70
2022/04/21 11:01:12;;;;;;;4.80;1.90;;;42.60;34.60;;;;;;5089577;28;20127;-70
2022/04/21 11:03:40;;;;;;;4.93;1.90;;;42.60;35.20;;;;;;5091748;28;20044;-71
2022/04/21 11:06:07;;;;;;;3.55;1.92;;;42.40;34.60;;;;;;5090774;28;20044;-70
2022/04/21 11:08:33;;;;;;;3.53;1.98;;;42.30;34.90;;;;;;5106623;28;20073;-70
2022/04/21 11:10:59;;;;;;;4.25;1.95;;;42.80;34.60;;;;;;5092825;28;20123;-70
2022/04/21 11:13:51;;;;;;;5.38;2.03;;;42.50;35.00;;;;;;5091030;28;20056;-71
2022/04/21 11:16:41;;;;;;;2.83;1.73;;;42.70;35.00;;;;;;5092285;28;20424;-71
2022/04/21 11:19:28;;;;;;;3.50;1.80;;;43.10;34.60;;;;;;5091082;28;20133;-70
2022/04/21 11:21:55;;;;;;;4.25;1.65;;;42.80;34.40;;;;;;5089143;28;20408;-71
2022/04/21 11:24:22;;;;;;;7.70;2.00;;;43.00;34.30;;;;;;5091875;28;20044;-70
2022/04/21 11:26:58;;;;;;;3.83;1.90;;;43.30;34.10;;;;;;5089225;28;20127;-71
2022/04/21 11:29:24;;;;;;;3.42;1.65;;;44.60;34.00;;;;;;5056490;28;20480;-71
2022/04/21 11:31:57;;;;;;;4.95;1.92;;;44.70;33.70;;;;;;5073567;28;20044;-70
2022/04/21 11:34:26;;;;;;;3.67;1.77;;;44.50;33.70;;;;;;5069452;28;20123;-72
2022/04/21 11:37:01;;;;;;;3.90;1.90;;;43.20;33.50;;;;;;5086385;28;20047;-72
2022/04/21 11:39:26;;;;;;;4.40;2.10;;;40.70;33.70;;;;;;5087544;28;20175;-71
2022/04/21 11:41:53;;;;;;;4.03;2.10;;;38.70;34.30;;;;;;5087055;28;20143;-73
2022/04/21 11:44:22;;;;;;;3.85;2.05;;;36.60;35.00;;;;;;5069198;28;20581;-71
2022/04/21 11:46:48;;;;;;;5.82;2.33;;;35.00;35.70;;;;;;5087975;28;20040;-73
2022/04/21 11:49:14;;;;;;;5.07;2.10;;;33.10;36.80;;;;;;5087715;28;20044;-73
2022/04/21 11:51:41;;;;;;;4.20;2.30;;;31.80;37.50;;;;;;5086282;28;20097;-71
2022/04/21 11:54:09;;;;;;;6.22;2.17;;;30.90;38.90;;;;;;5078148;28;20047;-71
2022/04/21 11:56:37;;;;;;;3.85;2.20;;;30.20;39.70;;;;;;5110150;28;20052;-71
2022/04/21 11:59:07;;;;;;;4.20;1.95;;;30.10;40.40;;;;;;5091687;28;20447;-71
2022/04/21 12:07:05;;;;;;;6.75;2.80;;;33.10;38.30;;;;;;5093215;28;20139;-71
2022/04/21 12:09:35;;;;;;;4.72;2.70;;;34.50;38.30;;;;;;5109141;28;20170;-71
2022/04/21 12:12:03;;;;;;;6.82;2.58;;;36.20;37.30;;;;;;5108839;28;20035;-72
2022/04/21 12:14:29;;;;;;;5.63;2.38;;;37.10;36.70;;;;;;5091281;28;20398;-72
2022/04/21 12:16:57;;;;;;;5.43;2.70;;;37.40;36.60;;;;;;5091309;28;20036;-71
2022/04/21 12:19:41;;;;;;;8.45;2.75;;;37.80;36.40;;;;;;5109726;28;20501;-70
2022/04/21 12:22:13;;;;;;;5.57;2.33;;;38.80;35.60;;;;;;5107196;28;20044;-70
2022/04/21 12:24:39;;;;;;;8.57;2.78;;;38.50;35.40;;;;;;5109468;28;20051;-70
2022/04/21 12:27:12;;;;;;;4.85;2.38;;;37.90;35.60;;;;;;5090847;28;20506;-71
2022/04/21 12:29:58;;;;;;;8.07;2.70;;;37.80;35.60;;;;;;5109322;28;20120;-71
2022/04/21 12:32:25;;;;;;;3.78;2.08;;;37.50;35.50;;;;;;5109297;28;20051;-69
2022/04/21 12:34:54;;;;;;;3.67;2.60;;;36.40;35.70;;;;;;5108887;28;20052;-71
2022/04/21 12:37:28;;;;;;;5.00;2.70;;;35.00;36.20;;;;;;5106832;28;20085;-72
2022/04/21 12:39:55;;;;;;;5.10;2.72;;;33.10;37.30;;;;;;5109448;28;20048;-69
2022/04/21 12:42:21;;;;;;;5.28;2.47;;;31.10;38.30;;;;;;5108798;28;20039;-69
2022/04/21 12:44:47;;;;;;;5.65;2.60;;;29.70;39.50;;;;;;5108544;28;20111;-68
2022/04/21 12:47:17;;;;;;;3.70;2.60;;;28.40;40.80;;;;;;5108837;28;20043;-70
2022/04/21 12:50:10;;;;;;;6.35;2.83;;;27.80;42.10;;;;;;5107980;28;20144;-70
2022/04/21 12:52:45;;;;;;;4.70;2.78;;;27.10;42.50;;;;;;5106777;28;20183;-71
2022/04/21 12:55:22;;;;;;;6.75;3.00;;;26.70;43.20;;;;;;5090920;28;101152;-70
2022/04/21 12:58:09;;;;;;;9.30;3.10;;;26.50;43.80;;;;;;5107868;28;20052;-70
2022/04/21 13:00:38;;;;;;;4.28;2.90;;;26.10;44.30;;;;;;5109226;28;20036;-70
2022/04/21 13:03:05;;;;;;;9.40;3.15;;;25.50;44.60;;;;;;5109176;28;20381;-70
2022/04/21 13:05:32;;;;;;;5.00;2.80;;;25.30;45.30;;;;;;5090986;28;20142;-70
2022/04/21 13:07:58;;;;;;;5.88;3.08;;;25.10;46.00;;;;;;5108817;28;20428;-70
2022/04/21 13:10:24;;;;;;;4.55;3.00;;;24.80;46.60;;;;;;5111156;28;20035;-70
2022/04/21 13:12:51;;;;;;;6.18;2.92;;;24.60;47.20;;;;;;5099272;28;20079;-71
2022/04/21 13:15:17;;;;;;;7.30;3.15;;;24.50;47.40;;;;;;5089006;28;20040;-70
2022/04/21 13:17:42;;;;;;;5.88;3.50;;;24.30;47.70;;;;;;5069919;28;20127;-71
2022/04/21 13:20:09;;;;;;;7.68;3.45;;;24.30;48.20;;;;;;5071349;28;20492;-71
2022/04/21 13:22:35;;;;;;;8.50;3.30;;;24.20;48.60;;;;;;5051825;28;20079;-70
2022/04/21 13:25:02;;;;;;;6.85;3.38;;;24.10;47.90;;;;;;5088631;28;20055;-70
2022/04/21 13:27:29;;;;;;;4.93;3.30;;;23.80;48.40;;;;;;5090112;28;20048;-70
2022/04/21 13:29:54;;;;;;;4.97;3.40;;;23.70;48.80;;;;;;5089789;28;20448;-70
2022/04/21 13:35:05;;;;;;;5.32;3.42;;;23.30;49.50;;;;;;5088485;28;20044;-70
2022/04/21 13:37:31;;;;;;;5.95;3.45;;;23.10;49.70;;;;;;5069478;28;20043;-70
2022/04/21 13:39:57;;;;;;;8.05;3.60;;;23.00;50.00;;;;;;5087819;28;20490;-70
2022/04/21 13:42:22;;;;;;;6.57;3.45;;;22.90;50.50;;;;;;5088576;28;20040;-70
2022/04/21 13:44:48;;;;;;;6.25;3.30;;;22.80;50.80;;;;;;5088344;28;20079;-70